Orbital elements of FENGYUN 1C DEB
| Launched | 9 May 1999 |
| Flight ended | – |
| Launch site | Taiyuan Space Center, PRC |
| Owner | People's Republic of China |
| NORAD ID | 30145 |
| Date fetched |
Epoch osculation |
Inc. [°] |
Ecc. | RA asc node [hr] |
Arg Peri. [°] |
Mean anom [°] |
Mean motion [rev/day] |
Abs. mag |
| Date fetched |
Epoch osculation |
Inc. [°] |
Ecc. | RA asc node [hr] |
Arg Peri. [°] |
Mean anom [°] |
Mean motion [rev/day] |
Abs. mag |
| 2026 May 08 17:57 | 2026 May 05 06:12:20 | 99.2716 | 0.00908 | 16.3561 | 106.0930 | 313.1469 | 14.15658 | – |
| 2026 May 07 17:58 | 2026 May 05 06:12:20 | 99.2716 | 0.00908 | 16.3561 | 106.0930 | 313.1469 | 14.15658 | – |
| 2026 May 06 17:57 | 2026 May 05 06:12:20 | 99.2716 | 0.00908 | 16.3561 | 106.0930 | 313.1469 | 14.15658 | – |
| 2026 May 05 17:57 | 2026 May 05 06:12:20 | 99.2716 | 0.00908 | 16.3561 | 106.0930 | 313.1469 | 14.15658 | – |
| 2026 May 04 17:57 | 2026 Apr 30 14:04:59 | 99.2710 | 0.00914 | 16.0322 | 118.8870 | 313.1469 | 14.15658 | – |
| 2026 May 03 17:57 | 2026 Apr 30 14:04:59 | 99.2710 | 0.00914 | 16.0322 | 118.8870 | 313.1469 | 14.15658 | – |
| 2026 May 02 17:57 | 2026 Apr 30 14:04:59 | 99.2710 | 0.00914 | 16.0322 | 118.8870 | 313.1469 | 14.15658 | – |
| 2026 May 01 17:56 | 2026 Apr 30 14:04:59 | 99.2710 | 0.00914 | 16.0322 | 118.8870 | 313.1469 | 14.15658 | – |
| 2026 Apr 30 17:56 | 2026 Apr 30 14:04:59 | 99.2710 | 0.00914 | 16.0322 | 118.8870 | 313.1469 | 14.15658 | – |
| 2026 Apr 29 17:57 | 2026 Apr 24 07:07:57 | 99.2703 | 0.00919 | 15.5962 | 136.0094 | 313.1469 | 14.15658 | – |
| 2026 Apr 28 17:56 | 2026 Apr 24 07:07:57 | 99.2703 | 0.00919 | 15.5962 | 136.0094 | 313.1469 | 14.15658 | – |
| 2026 Apr 27 17:58 | 2026 Apr 24 07:07:57 | 99.2703 | 0.00919 | 15.5962 | 136.0094 | 313.1469 | 14.15658 | – |
| 2026 Apr 26 17:58 | 2026 Apr 24 07:07:57 | 99.2703 | 0.00919 | 15.5962 | 136.0094 | 313.1469 | 14.15658 | – |
| 2026 Apr 25 17:58 | 2026 Apr 24 07:07:57 | 99.2703 | 0.00919 | 15.5962 | 136.0094 | 313.1469 | 14.15658 | – |
| 2026 Apr 24 17:59 | 2026 Apr 24 07:07:57 | 99.2703 | 0.00919 | 15.5962 | 136.0094 | 313.1469 | 14.15658 | – |
| 2026 Apr 23 17:57 | 2026 Apr 19 06:41:28 | 99.2702 | 0.00922 | 15.2484 | 149.5957 | 313.1469 | 14.15658 | – |
| 2026 Apr 22 17:57 | 2026 Apr 19 06:41:28 | 99.2702 | 0.00922 | 15.2484 | 149.5957 | 313.1469 | 14.15658 | – |
| 2026 Apr 21 17:57 | 2026 Apr 19 06:41:28 | 99.2702 | 0.00922 | 15.2484 | 149.5957 | 313.1469 | 14.15658 | – |
| 2026 Apr 20 17:57 | 2026 Apr 19 06:41:28 | 99.2702 | 0.00922 | 15.2484 | 149.5957 | 313.1469 | 14.15658 | – |
| 2026 Apr 19 17:58 | 2026 Apr 19 06:41:28 | 99.2702 | 0.00922 | 15.2484 | 149.5957 | 313.1469 | 14.15658 | – |
| 2026 Apr 18 17:56 | 2026 Apr 13 06:29:19 | 99.2687 | 0.00923 | 14.8320 | 165.9067 | 313.1469 | 14.15658 | – |
| 2026 Apr 16 17:57 | 2026 Apr 13 06:29:19 | 99.2687 | 0.00923 | 14.8320 | 165.9067 | 313.1469 | 14.15658 | – |
| 2026 Apr 14 17:57 | 2026 Apr 13 06:29:19 | 99.2687 | 0.00923 | 14.8320 | 165.9067 | 313.1469 | 14.15658 | – |
| 2026 Apr 13 17:57 | 2026 Apr 13 06:29:19 | 99.2687 | 0.00923 | 14.8320 | 165.9067 | 313.1469 | 14.15658 | – |
| 2026 Apr 12 17:57 | 2026 Apr 08 14:26:46 | 99.2686 | 0.00922 | 14.5085 | 178.6057 | 313.1469 | 14.15658 | – |
| 2026 Apr 11 17:57 | 2026 Apr 08 14:26:46 | 99.2686 | 0.00922 | 14.5085 | 178.6057 | 313.1469 | 14.15658 | – |